Time;durP1;ratioP1;P1;durP2;ratioP2;P2;SDS_P1;SDS_P2;PMS_P1;PMS_P2;Temp;Humidity;BMP_temperature;BMP_pressure;BME280_temperature;BME280_humidity;BME280_pressure;Samples;Min_cycle;Max_cycle;Signal;HPM_P1;HPM_P2
2020/12/26 00:00:19;;;;;;;6.07;2.00;;;3.60;99.90;;;;;;5051335;28;20113;-74
2020/12/26 00:02:46;;;;;;;4.38;1.73;;;3.70;99.90;;;;;;5050140;28;20033;-74
2020/12/26 00:05:11;;;;;;;5.78;2.15;;;3.60;99.90;;;;;;5060685;28;20041;-74
2020/12/26 00:07:37;;;;;;;4.78;2.03;;;3.60;99.90;;;;;;5051311;28;20093;-73
2020/12/26 00:10:03;;;;;;;3.55;1.90;;;3.60;99.90;;;;;;5052810;28;20036;-74
2020/12/26 00:12:28;;;;;;;3.58;1.52;;;3.70;99.90;;;;;;5051168;28;20586;-74
2020/12/26 00:14:54;;;;;;;6.45;1.92;;;3.70;99.90;;;;;;5052523;28;20069;-74
2020/12/26 00:17:19;;;;;;;4.00;2.05;;;3.70;99.90;;;;;;5061096;28;20032;-74
2020/12/26 00:19:44;;;;;;;4.50;1.30;;;3.70;99.90;;;;;;5067352;28;20407;-74
2020/12/26 00:22:10;;;;;;;5.32;1.70;;;3.70;99.90;;;;;;5062054;28;20116;-74
2020/12/26 00:24:37;;;;;;;9.13;1.75;;;3.70;99.90;;;;;;5054154;28;20036;-74
2020/12/26 00:27:02;;;;;;;5.35;1.70;;;3.60;99.90;;;;;;5064759;28;20086;-74
2020/12/26 00:29:28;;;;;;;2.78;1.30;;;3.60;99.90;;;;;;5059970;28;20398;-73
2020/12/26 00:31:53;;;;;;;4.28;1.85;;;3.60;99.90;;;;;;5050937;28;20044;-73
2020/12/26 00:34:19;;;;;;;2.60;1.60;;;3.60;99.90;;;;;;5054919;28;20557;-74
2020/12/26 00:36:45;;;;;;;2.53;1.52;;;3.60;99.90;;;;;;5063630;28;20029;-73
2020/12/26 00:39:10;;;;;;;4.00;2.05;;;3.60;99.90;;;;;;5067084;28;20040;-73
2020/12/26 00:41:36;;;;;;;3.53;1.95;;;3.50;99.90;;;;;;5067398;28;20035;-73
2020/12/26 00:44:01;;;;;;;4.03;1.77;;;3.50;99.90;;;;;;5068655;28;20545;-73
2020/12/26 00:46:27;;;;;;;5.47;1.80;;;3.40;99.90;;;;;;5048852;28;20029;-74
2020/12/26 00:48:52;;;;;;;6.60;1.63;;;3.50;99.90;;;;;;5049816;28;20025;-74
2020/12/26 00:51:18;;;;;;;2.83;1.65;;;3.40;99.90;;;;;;5057738;28;20017;-74
2020/12/26 00:53:43;;;;;;;8.00;1.70;;;3.40;99.90;;;;;;5063338;28;20028;-74
2020/12/26 00:56:09;;;;;;;3.10;1.77;;;3.50;99.90;;;;;;5056232;28;20719;-73
2020/12/26 00:58:34;;;;;;;5.97;1.67;;;3.60;99.90;;;;;;5049745;28;20033;-74
2020/12/26 01:01:00;;;;;;;3.80;1.70;;;3.50;99.90;;;;;;5064278;28;20082;-73
2020/12/26 01:03:27;;;;;;;4.20;1.85;;;3.50;99.90;;;;;;5058155;28;20028;-73
2020/12/26 01:05:53;;;;;;;2.95;1.90;;;3.40;99.90;;;;;;5053810;28;20029;-74
2020/12/26 01:08:18;;;;;;;5.28;1.80;;;3.40;99.90;;;;;;5056221;28;20041;-74
2020/12/26 01:10:44;;;;;;;3.35;1.67;;;3.40;99.90;;;;;;5054970;28;20017;-73
2020/12/26 01:13:09;;;;;;;4.72;1.90;;;3.50;99.90;;;;;;5051173;28;20032;-74
2020/12/26 01:15:35;;;;;;;4.38;1.80;;;3.50;99.90;;;;;;5056258;28;20052;-74
2020/12/26 01:18:00;;;;;;;1.90;1.30;;;3.40;99.90;;;;;;5066239;28;20017;-74
2020/12/26 01:20:25;;;;;;;3.90;1.55;;;3.40;99.90;;;;;;5067767;28;20044;-74
2020/12/26 01:22:51;;;;;;;3.60;1.75;;;3.30;99.90;;;;;;5068704;28;20562;-74
2020/12/26 01:25:16;;;;;;;7.05;1.75;;;3.40;99.90;;;;;;5053578;28;20107;-74
2020/12/26 01:27:42;;;;;;;3.60;1.88;;;3.40;99.90;;;;;;5051450;28;20032;-73
2020/12/26 01:30:07;;;;;;;2.72;1.70;;;3.40;99.90;;;;;;5067567;28;20032;-73
2020/12/26 01:32:33;;;;;;;2.33;1.75;;;3.40;99.90;;;;;;5064776;28;20024;-74
2020/12/26 01:34:59;;;;;;;3.97;1.55;;;3.40;99.90;;;;;;5057864;28;20024;-73
2020/12/26 01:37:26;;;;;;;3.83;1.90;;;3.40;99.90;;;;;;5068070;28;20426;-74
2020/12/26 01:39:51;;;;;;;4.97;1.95;;;3.30;99.90;;;;;;5059269;28;20035;-73
2020/12/26 01:42:17;;;;;;;8.65;1.95;;;3.30;99.90;;;;;;5066732;28;20394;-74
2020/12/26 01:44:43;;;;;;;3.85;1.80;;;3.30;99.90;;;;;;5057341;28;20085;-73
2020/12/26 01:47:09;;;;;;;2.80;1.50;;;3.30;99.90;;;;;;5068659;28;20051;-73
2020/12/26 01:49:36;;;;;;;5.65;1.88;;;3.30;99.90;;;;;;5066260;28;20028;-73
2020/12/26 01:52:02;;;;;;;4.05;2.00;;;3.40;99.90;;;;;;5066439;28;20066;-74
2020/12/26 01:54:28;;;;;;;6.18;2.25;;;3.30;99.90;;;;;;5054179;28;20108;-74
2020/12/26 01:56:54;;;;;;;8.82;1.90;;;3.40;99.90;;;;;;5064634;28;20538;-73
2020/12/26 01:59:20;;;;;;;2.88;1.63;;;3.40;99.90;;;;;;5048787;28;20028;-74
2020/12/26 02:01:50;;;;;;;7.53;1.92;;;3.40;99.90;;;;;;5067205;28;20059;-73
2020/12/26 02:04:16;;;;;;;5.30;1.70;;;3.20;99.90;;;;;;5059114;28;20115;-74
2020/12/26 02:06:48;;;;;;;6.20;1.90;;;3.30;99.90;;;;;;5052125;28;20036;-73
2020/12/26 02:09:15;;;;;;;3.85;1.90;;;3.30;99.90;;;;;;5048345;28;20029;-74
2020/12/26 02:11:41;;;;;;;3.58;1.70;;;3.30;99.90;;;;;;5051010;28;20048;-73
2020/12/26 02:14:07;;;;;;;6.32;1.73;;;3.30;99.90;;;;;;5055054;28;20502;-73
2020/12/26 02:16:43;;;;;;;3.80;1.80;;;3.30;99.90;;;;;;5055979;28;20025;-73
2020/12/26 02:19:09;;;;;;;3.72;1.70;;;3.20;99.90;;;;;;5060846;28;20596;-73
2020/12/26 02:21:35;;;;;;;6.15;1.90;;;3.20;99.90;;;;;;5059660;28;20132;-74
2020/12/26 02:24:00;;;;;;;2.95;1.40;;;3.20;99.90;;;;;;5051836;28;20539;-74
2020/12/26 02:26:29;;;;;;;2.08;1.60;;;3.10;99.90;;;;;;5047647;28;20119;-73
2020/12/26 02:28:55;;;;;;;3.55;1.60;;;3.10;99.90;;;;;;5062358;28;20029;-74
2020/12/26 02:31:20;;;;;;;2.67;1.55;;;3.20;99.90;;;;;;5060886;28;20037;-73
2020/12/26 02:33:46;;;;;;;2.70;1.85;;;3.30;99.90;;;;;;5056980;28;20029;-74
2020/12/26 02:36:11;;;;;;;5.13;2.28;;;3.20;99.90;;;;;;5059340;28;20379;-73
2020/12/26 02:38:37;;;;;;;5.45;2.20;;;3.30;99.90;;;;;;5055183;28;20094;-74
2020/12/26 02:41:02;;;;;;;5.03;1.98;;;3.40;99.90;;;;;;5050465;28;20029;-73
2020/12/26 02:43:28;;;;;;;2.97;1.63;;;3.40;99.90;;;;;;5050591;28;20028;-73
2020/12/26 02:45:55;;;;;;;6.07;2.13;;;3.40;99.90;;;;;;5063665;28;20463;-74
2020/12/26 02:48:21;;;;;;;2.97;1.80;;;3.30;99.90;;;;;;5069936;28;20549;-74
2020/12/26 02:50:47;;;;;;;4.45;1.77;;;3.30;99.90;;;;;;5066127;28;20082;-74
2020/12/26 02:53:13;;;;;;;11.30;2.15;;;3.20;99.90;;;;;;5067270;28;20395;-74
2020/12/26 02:55:38;;;;;;;3.95;1.75;;;3.20;99.90;;;;;;5051603;28;20032;-74
2020/12/26 02:58:04;;;;;;;7.78;1.90;;;3.20;99.90;;;;;;5057655;28;20370;-74
2020/12/26 03:00:29;;;;;;;3.50;1.60;;;3.10;99.90;;;;;;5060263;28;20088;-73
2020/12/26 03:02:55;;;;;;;5.28;1.63;;;3.10;99.90;;;;;;5068821;28;20588;-73
2020/12/26 03:05:21;;;;;;;6.07;1.90;;;3.20;99.90;;;;;;5052446;28;20052;-73
2020/12/26 03:07:46;;;;;;;3.92;1.48;;;3.20;99.90;;;;;;5063943;28;20486;-74
2020/12/26 03:10:12;;;;;;;7.72;1.80;;;3.20;99.90;;;;;;5053101;28;20074;-74
2020/12/26 03:12:37;;;;;;;6.88;1.80;;;3.30;99.90;;;;;;5068140;28;20052;-74
2020/12/26 03:15:04;;;;;;;5.45;1.88;;;3.30;99.90;;;;;;5055749;28;20055;-73
2020/12/26 03:17:30;;;;;;;4.47;1.80;;;3.30;99.90;;;;;;5055288;28;20040;-74
2020/12/26 03:19:58;;;;;;;5.38;1.42;;;3.30;99.90;;;;;;5052126;28;20706;-74
2020/12/26 03:22:27;;;;;;;4.88;1.60;;;3.20;99.90;;;;;;5053359;28;20118;-74
2020/12/26 03:24:54;;;;;;;2.67;1.45;;;3.20;99.90;;;;;;5058611;28;20047;-74
2020/12/26 03:27:19;;;;;;;5.85;1.55;;;3.30;99.90;;;;;;5050701;28;20025;-74
2020/12/26 03:29:45;;;;;;;5.28;1.77;;;3.30;99.90;;;;;;5051861;28;20045;-73
2020/12/26 03:32:10;;;;;;;2.78;1.90;;;3.30;99.90;;;;;;5051010;28;20472;-74
2020/12/26 03:34:36;;;;;;;5.55;1.63;;;3.20;99.90;;;;;;5063255;28;20025;-74
2020/12/26 03:37:02;;;;;;;3.90;1.50;;;3.20;99.90;;;;;;5052373;28;20048;-74
2020/12/26 03:39:27;;;;;;;3.33;1.35;;;3.20;99.90;;;;;;5060699;28;20106;-74
2020/12/26 03:41:53;;;;;;;7.55;1.42;;;3.10;99.90;;;;;;5059278;28;20057;-74
2020/12/26 03:44:19;;;;;;;3.78;1.30;;;3.10;99.90;;;;;;5065332;28;20040;-74
2020/12/26 03:46:44;;;;;;;3.78;1.50;;;3.10;99.90;;;;;;5069319;28;20368;-74
2020/12/26 03:49:10;;;;;;;6.65;1.63;;;3.20;99.90;;;;;;5069513;28;20120;-74
2020/12/26 03:51:35;;;;;;;2.53;1.30;;;3.20;99.90;;;;;;5054374;28;20236;-74
2020/12/26 03:54:01;;;;;;;3.90;1.60;;;3.20;99.90;;;;;;5053255;28;20365;-73
2020/12/26 03:56:26;;;;;;;2.42;1.25;;;3.10;99.90;;;;;;5062796;28;20116;-74
2020/12/26 03:58:52;;;;;;;2.75;1.50;;;3.10;99.90;;;;;;5055012;28;20594;-74
2020/12/26 04:01:17;;;;;;;2.72;1.33;;;3.20;99.90;;;;;;5051513;28;20041;-74
2020/12/26 04:03:43;;;;;;;2.95;1.42;;;3.20;99.90;;;;;;5051794;28;20025;-74
2020/12/26 04:06:08;;;;;;;5.25;1.30;;;3.20;99.90;;;;;;5057270;28;20119;-74
2020/12/26 04:08:34;;;;;;;3.10;1.40;;;3.10;99.90;;;;;;5054024;28;20036;-75
2020/12/26 04:10:59;;;;;;;3.78;1.20;;;3.20;99.90;;;;;;5052783;28;20029;-74
2020/12/26 04:13:24;;;;;;;3.38;1.50;;;3.10;99.90;;;;;;5056599;28;20035;-74
2020/12/26 04:15:50;;;;;;;1.90;1.20;;;3.10;99.90;;;;;;5056929;28;20036;-74
2020/12/26 04:18:15;;;;;;;7.35;1.20;;;3.10;99.90;;;;;;5053244;28;20055;-74
2020/12/26 04:20:41;;;;;;;2.55;1.20;;;3.10;99.90;;;;;;5065048;28;20017;-74
2020/12/26 04:23:06;;;;;;;2.45;1.20;;;3.20;99.90;;;;;;5051013;28;20048;-74
2020/12/26 04:25:32;;;;;;;9.35;1.73;;;3.10;99.90;;;;;;5049660;28;20067;-74
2020/12/26 04:27:57;;;;;;;4.05;1.38;;;3.20;99.90;;;;;;5051158;28;20036;-74
2020/12/26 04:30:23;;;;;;;3.08;1.30;;;3.10;99.90;;;;;;5052257;28;20063;-74
2020/12/26 04:32:50;;;;;;;2.92;1.38;;;3.10;99.90;;;;;;5060060;28;20495;-74
2020/12/26 04:35:19;;;;;;;5.40;1.25;;;3.10;99.90;;;;;;5063940;28;20518;-74
2020/12/26 04:37:45;;;;;;;3.83;1.48;;;3.20;99.90;;;;;;5049754;28;20430;-74
2020/12/26 04:40:10;;;;;;;3.53;1.25;;;3.20;99.90;;;;;;5050503;28;20033;-74
2020/12/26 04:42:38;;;;;;;3.50;1.08;;;3.20;99.90;;;;;;5061166;28;20051;-74
2020/12/26 04:45:03;;;;;;;2.40;1.10;;;3.20;99.90;;;;;;5061931;28;20037;-74
2020/12/26 04:47:31;;;;;;;1.80;1.08;;;3.20;99.90;;;;;;5060438;28;20036;-74
2020/12/26 04:49:59;;;;;;;6.30;1.92;;;3.20;99.90;;;;;;5066814;28;20487;-74
2020/12/26 04:52:28;;;;;;;2.03;1.05;;;3.20;99.90;;;;;;5069258;28;20522;-74
2020/12/26 04:54:54;;;;;;;6.60;1.35;;;3.10;99.90;;;;;;5060074;28;20406;-74
2020/12/26 04:57:20;;;;;;;2.03;1.33;;;3.20;99.90;;;;;;5063808;28;20092;-74
2020/12/26 04:59:46;;;;;;;5.70;1.08;;;3.10;99.90;;;;;;5068254;28;20063;-74
2020/12/26 05:02:14;;;;;;;2.53;1.52;;;3.10;99.90;;;;;;5051096;28;20064;-74
2020/12/26 05:04:43;;;;;;;5.40;1.20;;;3.10;99.90;;;;;;5061098;28;20140;-74
2020/12/26 05:07:10;;;;;;;2.85;1.10;;;3.00;99.90;;;;;;5056661;28;20021;-74
2020/12/26 05:09:36;;;;;;;2.10;1.00;;;3.10;99.90;;;;;;5048683;28;20029;-74
2020/12/26 05:12:01;;;;;;;2.65;1.40;;;3.10;99.90;;;;;;5067915;28;20053;-74
2020/12/26 05:14:29;;;;;;;2.13;1.02;;;3.10;99.90;;;;;;5063813;28;20029;-74
2020/12/26 05:16:54;;;;;;;1.73;0.85;;;3.10;99.90;;;;;;5059888;28;20421;-74
2020/12/26 05:19:20;;;;;;;3.75;1.13;;;3.10;99.90;;;;;;5057409;28;20134;-74
2020/12/26 05:21:53;;;;;;;2.78;1.38;;;3.10;99.90;;;;;;5060783;28;20499;-75
2020/12/26 05:24:19;;;;;;;1.75;1.00;;;2.90;99.90;;;;;;5048893;28;20056;-74
2020/12/26 05:26:48;;;;;;;1.27;0.98;;;3.00;99.90;;;;;;5052415;28;20492;-75
2020/12/26 05:29:15;;;;;;;4.25;1.33;;;3.00;99.90;;;;;;5049241;28;20490;-75
2020/12/26 05:31:42;;;;;;;6.65;1.30;;;3.00;99.90;;;;;;5054210;28;20113;-74
2020/12/26 05:34:10;;;;;;;3.78;1.33;;;3.00;99.90;;;;;;5065584;28;20032;-74
2020/12/26 05:36:36;;;;;;;3.55;1.35;;;2.90;99.90;;;;;;5054396;28;20024;-75
2020/12/26 05:39:01;;;;;;;2.67;1.05;;;2.70;99.90;;;;;;5048578;28;20040;-75
2020/12/26 05:41:29;;;;;;;3.22;1.20;;;2.70;99.90;;;;;;5059283;28;20036;-74
2020/12/26 05:43:55;;;;;;;4.88;1.25;;;2.70;99.90;;;;;;5061168;28;20118;-74
2020/12/26 05:46:20;;;;;;;4.38;1.35;;;2.60;99.90;;;;;;5051132;28;20582;-74
2020/12/26 05:48:46;;;;;;;2.67;1.42;;;2.60;99.90;;;;;;5048386;28;20435;-74
2020/12/26 05:51:25;;;;;;;1.42;1.15;;;2.50;99.90;;;;;;5051484;28;20054;-74
2020/12/26 05:53:55;;;;;;;2.80;1.50;;;2.60;99.90;;;;;;5062846;28;20031;-74
2020/12/26 05:56:21;;;;;;;1.90;1.00;;;2.50;99.90;;;;;;5062783;28;20043;-74
2020/12/26 05:58:47;;;;;;;4.25;1.63;;;2.40;99.90;;;;;;5068153;28;20028;-74
2020/12/26 06:01:21;;;;;;;2.35;1.30;;;2.40;99.90;;;;;;5061336;28;20379;-74
2020/12/26 06:03:47;;;;;;;4.28;1.20;;;2.30;99.90;;;;;;5047888;28;20028;-73
2020/12/26 06:06:14;;;;;;;3.17;1.50;;;2.30;99.90;;;;;;5049254;28;20082;-74
2020/12/26 06:08:40;;;;;;;2.72;1.63;;;2.30;99.90;;;;;;5050207;28;20029;-74
2020/12/26 06:11:06;;;;;;;4.20;1.80;;;2.30;99.90;;;;;;5060151;28;20383;-74
2020/12/26 06:13:34;;;;;;;2.30;1.30;;;2.20;99.90;;;;;;5047809;28;20052;-74
2020/12/26 06:16:24;;;;;;;2.00;1.35;;;2.20;99.90;;;;;;5050085;28;20233;-74
2020/12/26 06:18:57;;;;;;;3.33;1.67;;;2.20;99.90;;;;;;5048261;28;20127;-74
2020/12/26 06:21:24;;;;;;;4.47;1.45;;;2.20;99.90;;;;;;5051028;28;20032;-74
2020/12/26 06:23:50;;;;;;;4.60;1.55;;;2.20;99.90;;;;;;5061160;28;20526;-74
2020/12/26 06:26:17;;;;;;;2.92;1.60;;;2.10;99.90;;;;;;5056877;28;20071;-74
2020/12/26 06:28:44;;;;;;;6.78;2.08;;;2.10;99.90;;;;;;5051638;28;20124;-74
2020/12/26 06:31:11;;;;;;;3.20;1.98;;;2.10;99.90;;;;;;5053475;28;20040;-74
2020/12/26 06:33:45;;;;;;;5.32;2.53;;;2.10;99.90;;;;;;5058157;28;20609;-75
2020/12/26 06:36:11;;;;;;;5.57;2.42;;;2.00;99.90;;;;;;5063617;28;20029;-74
2020/12/26 06:38:38;;;;;;;8.68;2.70;;;2.00;99.90;;;;;;5051438;28;20111;-74
2020/12/26 06:41:19;;;;;;;8.70;2.72;;;2.00;99.90;;;;;;5054608;28;20027;-74
2020/12/26 06:43:50;;;;;;;4.50;2.22;;;2.00;99.90;;;;;;5065630;28;20028;-74
2020/12/26 06:46:21;;;;;;;5.65;2.70;;;2.00;99.90;;;;;;5066726;28;20052;-74
2020/12/26 06:48:48;;;;;;;4.15;2.47;;;2.00;99.90;;;;;;5071808;28;20045;-74
2020/12/26 06:51:26;;;;;;;5.78;3.53;;;2.00;99.90;;;;;;5068957;28;20065;-74
2020/12/26 06:53:53;;;;;;;5.95;3.63;;;1.90;99.90;;;;;;5051695;28;20025;-74
2020/12/26 06:56:34;;;;;;;12.35;4.80;;;1.90;99.90;;;;;;5053112;28;20052;-74
2020/12/26 06:59:00;;;;;;;10.13;4.83;;;1.90;99.90;;;;;;5053079;28;20091;-74
2020/12/26 07:01:27;;;;;;;11.00;5.38;;;2.00;99.90;;;;;;5062231;28;20444;-74
2020/12/26 07:04:08;;;;;;;10.52;5.13;;;1.90;99.90;;;;;;5068576;28;20475;-74
2020/12/26 07:06:53;;;;;;;11.38;5.55;;;2.00;99.90;;;;;;5064070;28;20517;-75
2020/12/26 07:09:37;;;;;;;8.88;5.57;;;2.00;99.90;;;;;;5067998;28;20094;-74
2020/12/26 07:12:04;;;;;;;9.40;5.18;;;2.00;99.90;;;;;;5053155;28;20510;-74
2020/12/26 07:14:33;;;;;;;9.80;5.97;;;2.00;99.90;;;;;;5066040;28;20025;-74
2020/12/26 07:17:00;;;;;;;11.55;6.20;;;1.90;99.90;;;;;;5058338;28;20093;-75
2020/12/26 07:19:31;;;;;;;11.35;6.45;;;1.90;99.90;;;;;;5050631;28;20124;-75
2020/12/26 07:22:01;;;;;;;13.82;7.60;;;1.80;99.90;;;;;;5060479;28;20036;-74
2020/12/26 07:24:34;;;;;;;15.43;7.97;;;1.80;99.90;;;;;;5063922;28;20044;-74
2020/12/26 07:27:30;;;;;;;16.63;8.10;;;1.80;99.90;;;;;;5058842;28;20107;-75
2020/12/26 07:30:03;;;;;;;15.85;8.07;;;1.80;99.90;;;;;;5064851;28;20039;-74
2020/12/26 07:32:42;;;;;;;16.10;8.52;;;1.80;99.90;;;;;;5066597;28;20020;-74
2020/12/26 07:35:20;;;;;;;16.45;8.73;;;1.80;99.90;;;;;;5065292;28;20426;-74
2020/12/26 07:38:04;;;;;;;19.17;8.98;;;1.90;99.90;;;;;;5051612;28;20029;-75
2020/12/26 07:40:43;;;;;;;18.55;8.55;;;1.70;99.90;;;;;;5052589;28;20032;-74
2020/12/26 07:43:14;;;;;;;17.88;8.75;;;1.80;99.90;;;;;;5052382;28;20033;-74
2020/12/26 07:45:41;;;;;;;19.87;9.37;;;1.90;99.90;;;;;;5059142;28;20067;-75
2020/12/26 07:48:07;;;;;;;18.83;9.27;;;1.80;99.90;;;;;;5055025;28;20745;-74
2020/12/26 07:50:35;;;;;;;19.23;9.30;;;1.90;99.90;;;;;;5058373;28;20020;-74
2020/12/26 07:53:06;;;;;;;21.20;9.63;;;1.80;99.90;;;;;;5070695;28;20024;-74
2020/12/26 07:55:33;;;;;;;22.00;9.40;;;1.80;99.90;;;;;;5068355;28;20021;-74
2020/12/26 07:58:16;;;;;;;21.77;9.05;;;1.90;99.90;;;;;;5052615;28;20210;-74
2020/12/26 08:00:42;;;;;;;25.38;10.23;;;1.90;99.90;;;;;;5060150;28;20032;-74
2020/12/26 08:03:10;;;;;;;19.45;9.63;;;2.10;99.90;;;;;;5063724;28;20392;-74
2020/12/26 08:05:38;;;;;;;25.17;10.05;;;2.10;99.90;;;;;;5057336;28;20644;-75
2020/12/26 08:08:12;;;;;;;19.65;9.68;;;2.00;99.90;;;;;;5057423;28;20025;-75
2020/12/26 08:10:38;;;;;;;26.25;9.85;;;2.10;99.90;;;;;;5050255;28;20053;-74
2020/12/26 08:13:03;;;;;;;22.52;9.10;;;2.10;99.90;;;;;;5062173;28;20048;-74
2020/12/26 08:15:30;;;;;;;20.48;9.02;;;2.20;99.90;;;;;;5050094;28;20379;-74
2020/12/26 08:18:04;;;;;;;19.75;8.60;;;2.20;99.90;;;;;;5054048;28;20079;-74
2020/12/26 08:20:32;;;;;;;21.05;8.73;;;2.20;99.90;;;;;;5060164;28;20040;-74
2020/12/26 08:22:58;;;;;;;26.33;9.13;;;2.20;99.90;;;;;;5053170;28;20025;-74
2020/12/26 08:25:26;;;;;;;20.60;8.85;;;2.20;99.90;;;;;;5053695;28;20054;-72
2020/12/26 08:27:52;;;;;;;20.75;9.00;;;2.20;99.90;;;;;;5054010;28;20047;-75
2020/12/26 08:30:25;;;;;;;24.45;9.15;;;2.30;99.90;;;;;;5054103;28;20550;-74
2020/12/26 08:32:56;;;;;;;18.38;9.30;;;2.20;99.90;;;;;;5055075;28;20037;-74
2020/12/26 08:35:25;;;;;;;20.92;9.18;;;2.20;99.90;;;;;;5054536;28;20040;-74
2020/12/26 08:38:03;;;;;;;18.85;9.07;;;2.40;99.90;;;;;;5054748;28;20475;-75
2020/12/26 08:40:31;;;;;;;20.23;9.00;;;2.20;99.90;;;;;;5055015;28;20040;-74
2020/12/26 08:42:57;;;;;;;18.25;8.65;;;2.20;99.90;;;;;;5054039;28;20242;-74
2020/12/26 08:45:32;;;;;;;23.52;8.98;;;2.20;99.90;;;;;;5053683;28;20455;-74
2020/12/26 08:48:00;;;;;;;21.52;8.82;;;2.20;99.90;;;;;;5055036;28;20041;-74
2020/12/26 08:50:27;;;;;;;21.17;8.68;;;2.20;99.90;;;;;;5054047;28;20031;-74
2020/12/26 08:53:05;;;;;;;21.75;8.63;;;2.30;99.90;;;;;;5054607;28;20040;-74
2020/12/26 08:55:30;;;;;;;17.30;7.97;;;2.30;99.90;;;;;;5053540;28;20025;-74
2020/12/26 08:57:57;;;;;;;17.35;8.32;;;2.30;99.90;;;;;;5054025;28;20510;-74
2020/12/26 09:00:23;;;;;;;23.35;8.48;;;2.50;99.90;;;;;;5052305;28;20025;-74
2020/12/26 09:02:50;;;;;;;19.25;8.38;;;2.50;99.90;;;;;;5053261;28;20032;-75
2020/12/26 09:05:29;;;;;;;22.67;8.95;;;2.50;99.90;;;;;;5053029;28;20071;-74
2020/12/26 09:08:06;;;;;;;16.35;8.43;;;2.50;99.90;;;;;;5051323;28;20029;-75
2020/12/26 09:10:37;;;;;;;19.23;8.20;;;2.40;99.90;;;;;;5052555;28;20070;-74
2020/12/26 09:13:04;;;;;;;17.85;8.73;;;2.40;99.90;;;;;;5053846;28;20624;-75
2020/12/26 09:15:53;;;;;;;18.25;8.27;;;2.50;99.90;;;;;;5053284;28;20086;-75
2020/12/26 09:18:23;;;;;;;22.42;9.30;;;2.50;99.90;;;;;;5053252;28;20091;-74
2020/12/26 09:20:54;;;;;;;16.83;7.97;;;2.60;99.90;;;;;;5053631;28;20032;-74
2020/12/26 09:23:21;;;;;;;17.90;9.23;;;2.60;99.90;;;;;;5052042;28;20049;-74
2020/12/26 09:25:47;;;;;;;16.13;8.02;;;2.70;99.90;;;;;;5052857;28;20498;-75
2020/12/26 09:28:13;;;;;;;21.42;9.68;;;2.80;99.90;;;;;;5053511;28;20052;-75
2020/12/26 09:30:39;;;;;;;16.30;8.32;;;2.80;99.90;;;;;;5053481;28;20037;-74
2020/12/26 09:33:04;;;;;;;19.05;9.30;;;2.80;99.90;;;;;;5053593;28;20033;-75
2020/12/26 09:35:30;;;;;;;22.20;8.73;;;2.90;99.90;;;;;;5049350;28;20481;-75
2020/12/26 09:37:57;;;;;;;22.60;9.63;;;2.90;99.90;;;;;;5052829;28;20029;-75
2020/12/26 09:40:27;;;;;;;16.05;8.38;;;2.90;99.90;;;;;;5052097;28;20410;-74
2020/12/26 09:42:53;;;;;;;18.52;8.10;;;3.00;99.90;;;;;;5051636;28;20037;-76
2020/12/26 09:45:19;;;;;;;18.95;8.75;;;3.00;99.90;;;;;;5054416;28;20067;-75
2020/12/26 09:47:44;;;;;;;23.70;9.75;;;3.10;99.90;;;;;;5053387;28;20422;-75
2020/12/26 09:50:10;;;;;;;18.65;8.50;;;3.10;99.90;;;;;;5052077;28;20380;-75
2020/12/26 09:52:37;;;;;;;18.65;8.85;;;3.10;99.90;;;;;;5052832;28;20020;-75
2020/12/26 09:55:03;;;;;;;16.88;8.25;;;3.20;99.90;;;;;;5051773;28;20029;-76
2020/12/26 09:57:29;;;;;;;17.65;8.57;;;3.30;99.90;;;;;;5052946;28;20027;-74
2020/12/26 09:59:54;;;;;;;23.65;9.27;;;3.30;99.90;;;;;;5051532;28;20173;-75
2020/12/26 10:02:21;;;;;;;19.77;8.68;;;3.40;99.90;;;;;;5054189;28;20058;-75
2020/12/26 10:04:46;;;;;;;18.83;7.95;;;3.40;99.90;;;;;;5051083;28;20032;-75
2020/12/26 10:07:11;;;;;;;12.90;7.30;;;3.30;99.90;;;;;;5052426;28;20047;-75
2020/12/26 10:09:37;;;;;;;19.17;7.95;;;3.40;99.90;;;;;;5051882;28;20037;-74
2020/12/26 10:12:02;;;;;;;26.10;9.30;;;3.40;99.90;;;;;;5052755;28;20028;-74
2020/12/26 10:14:28;;;;;;;15.25;8.73;;;3.40;99.90;;;;;;5052961;28;20031;-74
2020/12/26 10:16:53;;;;;;;15.05;8.18;;;3.40;99.90;;;;;;5052837;28;20051;-74
2020/12/26 10:19:19;;;;;;;19.77;8.45;;;3.40;99.90;;;;;;5052525;28;20078;-74
2020/12/26 10:21:50;;;;;;;14.50;7.70;;;3.40;99.90;;;;;;5052005;28;20076;-77
2020/12/26 10:24:15;;;;;;;17.55;8.27;;;3.40;99.90;;;;;;5053553;28;20060;-75
2020/12/26 10:26:41;;;;;;;19.10;8.75;;;3.30;99.90;;;;;;5051590;28;20059;-74
2020/12/26 10:29:07;;;;;;;22.55;9.32;;;3.20;99.90;;;;;;5053005;28;20450;-75
2020/12/26 10:31:32;;;;;;;19.90;8.20;;;3.20;99.90;;;;;;5050582;28;20329;-74
2020/12/26 10:33:58;;;;;;;16.77;8.25;;;3.20;99.90;;;;;;5053697;28;20514;-75
2020/12/26 10:36:23;;;;;;;18.75;8.00;;;3.20;99.90;;;;;;5052381;28;20453;-76
2020/12/26 10:38:49;;;;;;;20.20;8.73;;;3.30;99.90;;;;;;5052740;28;20241;-74
2020/12/26 10:41:14;;;;;;;19.08;8.68;;;3.40;99.90;;;;;;5052740;28;20108;-75
2020/12/26 10:43:40;;;;;;;17.05;8.25;;;3.40;99.90;;;;;;5051324;28;20040;-75
2020/12/26 10:46:05;;;;;;;19.15;8.90;;;3.30;99.90;;;;;;5052274;28;20094;-74
2020/12/26 10:48:31;;;;;;;21.00;8.32;;;3.40;99.90;;;;;;5053239;28;20025;-75
2020/12/26 10:50:56;;;;;;;15.80;8.13;;;3.30;99.90;;;;;;5052679;28;20483;-74
2020/12/26 10:53:21;;;;;;;16.52;8.15;;;3.40;99.90;;;;;;5052908;28;20142;-74
2020/12/26 10:55:47;;;;;;;20.52;9.65;;;3.50;99.90;;;;;;5051709;28;20086;-73
2020/12/26 10:58:13;;;;;;;15.48;8.43;;;3.50;99.90;;;;;;5052310;28;20029;-76
2020/12/26 11:00:38;;;;;;;22.23;9.63;;;3.60;99.90;;;;;;5051690;28;20036;-77
2020/12/26 11:03:03;;;;;;;20.08;9.60;;;3.60;99.90;;;;;;5051693;28;20037;-78
2020/12/26 11:05:29;;;;;;;19.48;9.68;;;3.60;99.90;;;;;;5051408;28;20041;-77
2020/12/26 11:07:54;;;;;;;22.05;9.07;;;3.60;99.90;;;;;;5052604;28;20546;-76
2020/12/26 11:10:20;;;;;;;16.95;8.98;;;3.60;99.90;;;;;;5054731;28;20032;-79
2020/12/26 11:12:45;;;;;;;21.27;10.20;;;3.60;99.90;;;;;;5054119;28;20029;-77
2020/12/26 11:15:11;;;;;;;22.65;9.48;;;3.50;99.90;;;;;;5056121;28;20060;-75
2020/12/26 11:17:36;;;;;;;21.58;9.93;;;3.50;99.90;;;;;;5055720;28;20093;-77
2020/12/26 11:20:03;;;;;;;22.27;9.40;;;3.50;99.90;;;;;;5055338;28;20045;-86
2020/12/26 11:22:29;;;;;;;20.63;9.73;;;3.50;99.90;;;;;;5055858;28;20120;-86
2020/12/26 11:24:54;;;;;;;20.77;9.93;;;3.60;99.90;;;;;;5053227;28;20127;-87
2020/12/26 11:27:20;;;;;;;21.83;9.30;;;3.50;99.90;;;;;;5055242;28;20094;-86
2020/12/26 11:29:45;;;;;;;21.55;8.82;;;3.50;99.90;;;;;;5056062;28;20037;-86
2020/12/26 11:32:11;;;;;;;24.63;9.45;;;3.50;99.90;;;;;;5053499;28;20121;-88
2020/12/26 11:34:36;;;;;;;22.48;9.80;;;3.40;99.90;;;;;;5054931;28;20028;-84
2020/12/26 11:37:04;;;;;;;16.95;9.10;;;3.50;99.90;;;;;;5057131;28;20021;-77
2020/12/26 11:39:30;;;;;;;17.67;9.13;;;3.50;99.90;;;;;;5055891;28;20112;-78
2020/12/26 11:41:55;;;;;;;17.48;8.75;;;3.50;99.90;;;;;;5055412;28;20460;-77
2020/12/26 11:44:21;;;;;;;19.02;9.50;;;3.50;99.90;;;;;;5054847;28;20025;-78
2020/12/26 11:46:46;;;;;;;15.93;8.57;;;3.60;99.90;;;;;;5055980;28;20051;-80
2020/12/26 11:49:12;;;;;;;19.00;9.00;;;3.60;99.90;;;;;;5055105;28;20119;-76
2020/12/26 11:51:37;;;;;;;16.92;8.43;;;3.60;99.90;;;;;;5055879;28;20036;-76
2020/12/26 11:54:03;;;;;;;14.70;8.20;;;3.60;99.90;;;;;;5054778;28;20115;-77
2020/12/26 11:56:28;;;;;;;16.00;8.40;;;3.50;99.90;;;;;;5054606;28;20491;-76
2020/12/26 11:58:54;;;;;;;16.33;7.97;;;3.50;99.90;;;;;;5054011;28;20036;-76
2020/12/26 12:01:19;;;;;;;16.58;9.20;;;3.50;99.90;;;;;;5054952;28;20037;-76
2020/12/26 12:03:45;;;;;;;17.23;9.18;;;3.40;99.90;;;;;;5055167;28;20024;-75
2020/12/26 12:06:13;;;;;;;14.90;8.13;;;3.40;99.90;;;;;;5055306;28;20043;-75
2020/12/26 12:08:40;;;;;;;14.52;7.47;;;3.50;99.90;;;;;;5054629;28;20380;-77
2020/12/26 12:11:06;;;;;;;17.77;8.57;;;3.50;99.90;;;;;;5054693;28;20029;-76
2020/12/26 12:13:31;;;;;;;28.00;10.13;;;3.60;99.90;;;;;;5054742;28;20108;-76
2020/12/26 12:15:57;;;;;;;19.05;8.30;;;3.70;99.90;;;;;;5054577;28;20128;-82
2020/12/26 12:18:22;;;;;;;14.98;8.65;;;3.60;99.90;;;;;;5056173;28;20033;-78
2020/12/26 12:20:47;;;;;;;17.90;7.68;;;3.60;99.90;;;;;;5054522;28;20617;-80
2020/12/26 12:23:13;;;;;;;17.08;7.95;;;3.60;99.90;;;;;;5056009;28;20027;-79
2020/12/26 12:25:40;;;;;;;14.10;7.95;;;3.70;99.90;;;;;;5054426;28;20056;-80
2020/12/26 12:28:05;;;;;;;17.20;7.65;;;3.70;99.90;;;;;;5054295;28;20047;-79
2020/12/26 12:30:31;;;;;;;15.73;7.60;;;3.70;99.90;;;;;;5054420;28;20032;-79
2020/12/26 12:32:56;;;;;;;15.35;6.88;;;3.70;99.90;;;;;;5054962;28;20033;-83
2020/12/26 12:35:21;;;;;;;11.23;6.95;;;3.80;99.90;;;;;;5055132;28;20143;-83
2020/12/26 12:37:48;;;;;;;13.88;7.68;;;3.80;99.90;;;;;;5050418;28;20478;-78
2020/12/26 12:40:14;;;;;;;13.25;6.78;;;3.80;99.90;;;;;;5055211;28;20028;-80
2020/12/26 12:42:39;;;;;;;17.83;7.00;;;3.80;99.90;;;;;;5051477;28;20025;-78
2020/12/26 12:45:05;;;;;;;13.23;7.50;;;3.80;99.90;;;;;;5051894;28;20029;-79
2020/12/26 12:47:30;;;;;;;15.05;7.25;;;3.90;99.90;;;;;;5054848;28;20040;-79
2020/12/26 12:49:56;;;;;;;17.63;6.90;;;3.90;99.90;;;;;;5054440;28;20642;-79
2020/12/26 12:52:21;;;;;;;15.43;7.60;;;3.90;99.90;;;;;;5054877;28;20052;-79